sensor_id;sensor_type;location;lat;lon;timestamp;pressure;altitude;pressure_sealevel;temperature;humidity
28306;BME280;7516;43.570;1.448;2022-07-29T00:01:08;99566.22;;;23.79;52.69
28306;BME280;7516;43.570;1.448;2022-07-29T00:03:36;99563.25;;;23.75;53.60
28306;BME280;7516;43.570;1.448;2022-07-29T00:06:03;99567.81;;;23.70;53.13
28306;BME280;7516;43.570;1.448;2022-07-29T00:08:31;99565.91;;;23.65;52.97
28306;BME280;7516;43.570;1.448;2022-07-29T00:10:58;99555.72;;;23.57;54.01
28306;BME280;7516;43.570;1.448;2022-07-29T00:13:26;99559.41;;;23.51;53.63
28306;BME280;7516;43.570;1.448;2022-07-29T00:15:53;99546.81;;;23.46;54.30
28306;BME280;7516;43.570;1.448;2022-07-29T00:18:22;99547.81;;;23.40;54.96
28306;BME280;7516;43.570;1.448;2022-07-29T00:20:50;99534.19;;;23.37;54.47
28306;BME280;7516;43.570;1.448;2022-07-29T00:23:17;99519.69;;;23.33;55.23
28306;BME280;7516;43.570;1.448;2022-07-29T00:25:45;99517.56;;;23.35;54.90
28306;BME280;7516;43.570;1.448;2022-07-29T00:28:12;99519.44;;;23.34;55.37
28306;BME280;7516;43.570;1.448;2022-07-29T00:30:40;99512.47;;;23.33;54.98
28306;BME280;7516;43.570;1.448;2022-07-29T00:33:09;99507.94;;;23.34;55.15
28306;BME280;7516;43.570;1.448;2022-07-29T00:35:38;99506.88;;;23.30;56.01
28306;BME280;7516;43.570;1.448;2022-07-29T00:38:10;99490.78;;;23.24;56.03
28306;BME280;7516;43.570;1.448;2022-07-29T00:40:38;99489.41;;;23.22;55.82
28306;BME280;7516;43.570;1.448;2022-07-29T00:43:05;99494.00;;;23.21;55.38
28306;BME280;7516;43.570;1.448;2022-07-29T00:45:33;99499.28;;;23.16;54.98
28306;BME280;7516;43.570;1.448;2022-07-29T00:48:01;99517.47;;;23.14;54.81
28306;BME280;7516;43.570;1.448;2022-07-29T00:50:29;99532.69;;;23.14;55.64
28306;BME280;7516;43.570;1.448;2022-07-29T00:52:59;99529.75;;;23.10;55.29
28306;BME280;7516;43.570;1.448;2022-07-29T00:55:27;99521.19;;;23.08;54.74
28306;BME280;7516;43.570;1.448;2022-07-29T00:57:56;99516.88;;;23.07;54.65
28306;BME280;7516;43.570;1.448;2022-07-29T01:00:25;99514.22;;;23.07;54.68
28306;BME280;7516;43.570;1.448;2022-07-29T01:02:53;99495.25;;;23.09;54.85
28306;BME280;7516;43.570;1.448;2022-07-29T01:05:23;99458.63;;;23.09;54.72
28306;BME280;7516;43.570;1.448;2022-07-29T01:07:52;99467.69;;;23.08;54.24
28306;BME280;7516;43.570;1.448;2022-07-29T01:10:21;99494.44;;;23.08;54.22
28306;BME280;7516;43.570;1.448;2022-07-29T01:12:52;99509.94;;;23.06;54.34
28306;BME280;7516;43.570;1.448;2022-07-29T01:15:20;99517.69;;;23.03;55.06
28306;BME280;7516;43.570;1.448;2022-07-29T01:17:55;99510.06;;;22.84;54.31
28306;BME280;7516;43.570;1.448;2022-07-29T01:20:31;99493.63;;;22.71;55.58
28306;BME280;7516;43.570;1.448;2022-07-29T01:23:11;99482.34;;;22.64;55.83
28306;BME280;7516;43.570;1.448;2022-07-29T01:26:07;99479.66;;;22.59;55.72
28306;BME280;7516;43.570;1.448;2022-07-29T01:28:49;99483.31;;;22.47;56.52
28306;BME280;7516;43.570;1.448;2022-07-29T01:31:22;99474.97;;;22.39;56.70
28306;BME280;7516;43.570;1.448;2022-07-29T01:34:01;99483.72;;;22.34;57.45
28306;BME280;7516;43.570;1.448;2022-07-29T01:36:33;99494.13;;;22.31;57.25
28306;BME280;7516;43.570;1.448;2022-07-29T01:39:07;99494.88;;;22.26;57.38
28306;BME280;7516;43.570;1.448;2022-07-29T01:41:38;99491.13;;;22.22;57.97
28306;BME280;7516;43.570;1.448;2022-07-29T01:44:16;99493.78;;;22.22;57.83
28306;BME280;7516;43.570;1.448;2022-07-29T01:46:51;99493.22;;;22.20;57.26
28306;BME280;7516;43.570;1.448;2022-07-29T01:49:24;99496.38;;;22.17;57.73
28306;BME280;7516;43.570;1.448;2022-07-29T01:51:57;99504.41;;;22.17;57.91
28306;BME280;7516;43.570;1.448;2022-07-29T01:54:29;99503.88;;;22.15;58.00
28306;BME280;7516;43.570;1.448;2022-07-29T01:56:59;99494.25;;;22.14;57.90
28306;BME280;7516;43.570;1.448;2022-07-29T01:59:30;99488.59;;;22.10;57.49
28306;BME280;7516;43.570;1.448;2022-07-29T02:01:59;99483.50;;;22.09;58.02
28306;BME280;7516;43.570;1.448;2022-07-29T02:04:27;99479.22;;;22.08;58.03
28306;BME280;7516;43.570;1.448;2022-07-29T02:07:00;99485.38;;;22.08;57.67
28306;BME280;7516;43.570;1.448;2022-07-29T02:09:29;99492.03;;;22.06;57.54
28306;BME280;7516;43.570;1.448;2022-07-29T02:11:59;99492.03;;;22.06;57.66
28306;BME280;7516;43.570;1.448;2022-07-29T02:14:31;99504.56;;;22.05;57.59
28306;BME280;7516;43.570;1.448;2022-07-29T02:17:01;99501.91;;;22.05;57.50
28306;BME280;7516;43.570;1.448;2022-07-29T02:19:30;99509.34;;;22.03;57.47
28306;BME280;7516;43.570;1.448;2022-07-29T02:21:59;99512.25;;;22.02;57.86
28306;BME280;7516;43.570;1.448;2022-07-29T02:24:29;99524.00;;;22.01;57.62
28306;BME280;7516;43.570;1.448;2022-07-29T02:26:57;99539.44;;;21.99;57.58
28306;BME280;7516;43.570;1.448;2022-07-29T02:29:30;99544.22;;;21.97;57.57
28306;BME280;7516;43.570;1.448;2022-07-29T02:32:01;99541.22;;;21.93;57.86
28306;BME280;7516;43.570;1.448;2022-07-29T02:34:30;99532.41;;;21.93;57.84
28306;BME280;7516;43.570;1.448;2022-07-29T02:36:58;99541.72;;;21.90;57.80
28306;BME280;7516;43.570;1.448;2022-07-29T02:39:28;99550.53;;;21.91;57.64
28306;BME280;7516;43.570;1.448;2022-07-29T02:42:02;99549.50;;;21.92;58.26
28306;BME280;7516;43.570;1.448;2022-07-29T02:44:32;99546.28;;;21.90;57.84
28306;BME280;7516;43.570;1.448;2022-07-29T02:47:07;99545.72;;;21.88;58.25
28306;BME280;7516;43.570;1.448;2022-07-29T02:49:40;99552.13;;;21.87;57.59
28306;BME280;7516;43.570;1.448;2022-07-29T02:52:16;99555.28;;;21.84;57.71
28306;BME280;7516;43.570;1.448;2022-07-29T02:54:50;99544.84;;;21.82;57.77
28306;BME280;7516;43.570;1.448;2022-07-29T02:57:21;99547.78;;;21.81;58.33
28306;BME280;7516;43.570;1.448;2022-07-29T02:59:54;99545.59;;;21.77;58.05
28306;BME280;7516;43.570;1.448;2022-07-29T03:02:26;99531.13;;;21.73;58.53
28306;BME280;7516;43.570;1.448;2022-07-29T03:04:56;99520.97;;;21.70;58.84
28306;BME280;7516;43.570;1.448;2022-07-29T03:07:25;99519.34;;;21.69;58.88
28306;BME280;7516;43.570;1.448;2022-07-29T03:09:53;99529.47;;;21.67;58.64
28306;BME280;7516;43.570;1.448;2022-07-29T03:12:21;99527.81;;;21.61;59.44
28306;BME280;7516;43.570;1.448;2022-07-29T03:14:50;99518.44;;;21.59;59.24
28306;BME280;7516;43.570;1.448;2022-07-29T03:17:19;99524.53;;;21.54;59.49
28306;BME280;7516;43.570;1.448;2022-07-29T03:19:47;99527.44;;;21.53;59.73
28306;BME280;7516;43.570;1.448;2022-07-29T03:22:15;99537.06;;;21.54;59.89
28306;BME280;7516;43.570;1.448;2022-07-29T03:24:42;99542.38;;;21.54;59.41
28306;BME280;7516;43.570;1.448;2022-07-29T03:27:10;99533.00;;;21.51;60.25
28306;BME280;7516;43.570;1.448;2022-07-29T03:29:37;99529.53;;;21.51;60.26
28306;BME280;7516;43.570;1.448;2022-07-29T03:32:07;99536.16;;;21.48;60.09
28306;BME280;7516;43.570;1.448;2022-07-29T03:34:35;99536.09;;;21.43;60.05
28306;BME280;7516;43.570;1.448;2022-07-29T03:37:02;99535.31;;;21.43;60.36
28306;BME280;7516;43.570;1.448;2022-07-29T03:39:33;99526.25;;;21.44;60.44
28306;BME280;7516;43.570;1.448;2022-07-29T03:42:01;99530.53;;;21.45;60.48
28306;BME280;7516;43.570;1.448;2022-07-29T03:44:32;99523.81;;;21.42;60.56
28306;BME280;7516;43.570;1.448;2022-07-29T03:47:02;99525.94;;;21.40;61.09
28306;BME280;7516;43.570;1.448;2022-07-29T03:49:33;99535.78;;;21.39;60.58
28306;BME280;7516;43.570;1.448;2022-07-29T03:52:04;99537.34;;;21.35;61.19
28306;BME280;7516;43.570;1.448;2022-07-29T03:54:32;99523.69;;;21.32;61.18
28306;BME280;7516;43.570;1.448;2022-07-29T03:57:00;99521.59;;;21.34;61.19
28306;BME280;7516;43.570;1.448;2022-07-29T03:59:29;99515.22;;;21.35;61.55
28306;BME280;7516;43.570;1.448;2022-07-29T04:01:57;99513.09;;;21.37;61.02
28306;BME280;7516;43.570;1.448;2022-07-29T04:04:26;99550.69;;;21.35;61.41
28306;BME280;7516;43.570;1.448;2022-07-29T04:06:55;99550.34;;;21.32;61.12
28306;BME280;7516;43.570;1.448;2022-07-29T04:09:22;99545.50;;;21.29;61.14
28306;BME280;7516;43.570;1.448;2022-07-29T04:11:50;99536.41;;;21.25;62.14
28306;BME280;7516;43.570;1.448;2022-07-29T04:14:18;99549.72;;;21.25;61.19
28306;BME280;7516;43.570;1.448;2022-07-29T04:16:46;99567.25;;;21.21;61.92
28306;BME280;7516;43.570;1.448;2022-07-29T04:19:14;99582.09;;;21.17;61.65
28306;BME280;7516;43.570;1.448;2022-07-29T04:21:41;99590.00;;;21.12;62.25
28306;BME280;7516;43.570;1.448;2022-07-29T04:24:12;99605.13;;;21.06;61.70
28306;BME280;7516;43.570;1.448;2022-07-29T04:26:40;99620.78;;;21.02;62.53
28306;BME280;7516;43.570;1.448;2022-07-29T04:29:07;99611.44;;;21.00;62.06
28306;BME280;7516;43.570;1.448;2022-07-29T04:31:35;99610.63;;;20.99;62.51
28306;BME280;7516;43.570;1.448;2022-07-29T04:34:02;99610.63;;;20.99;62.84
28306;BME280;7516;43.570;1.448;2022-07-29T04:36:30;99614.81;;;20.95;62.45
28306;BME280;7516;43.570;1.448;2022-07-29T04:38:57;99595.03;;;20.91;62.64
28306;BME280;7516;43.570;1.448;2022-07-29T04:41:26;99581.84;;;20.85;63.21
28306;BME280;7516;43.570;1.448;2022-07-29T04:43:54;99591.97;;;20.83;63.38
28306;BME280;7516;43.570;1.448;2022-07-29T04:46:21;99615.38;;;20.81;64.02
28306;BME280;7516;43.570;1.448;2022-07-29T04:48:49;99625.69;;;20.77;63.96
28306;BME280;7516;43.570;1.448;2022-07-29T04:51:16;99644.09;;;20.79;63.58
28306;BME280;7516;43.570;1.448;2022-07-29T04:53:44;99639.81;;;20.78;64.10
28306;BME280;7516;43.570;1.448;2022-07-29T04:56:11;99636.28;;;20.72;64.88
28306;BME280;7516;43.570;1.448;2022-07-29T04:58:40;99649.25;;;20.69;63.93
28306;BME280;7516;43.570;1.448;2022-07-29T05:01:08;99651.59;;;20.65;64.62
28306;BME280;7516;43.570;1.448;2022-07-29T05:03:35;99642.22;;;20.62;65.01
28306;BME280;7516;43.570;1.448;2022-07-29T05:06:03;99650.44;;;20.61;65.64
28306;BME280;7516;43.570;1.448;2022-07-29T05:08:30;99638.41;;;20.58;64.79
28306;BME280;7516;43.570;1.448;2022-07-29T05:10:58;99636.25;;;20.55;65.42
28306;BME280;7516;43.570;1.448;2022-07-29T05:13:25;99622.00;;;20.50;65.13
28306;BME280;7516;43.570;1.448;2022-07-29T05:15:54;99610.88;;;20.53;65.49
28306;BME280;7516;43.570;1.448;2022-07-29T05:18:24;99604.53;;;20.54;66.26
28306;BME280;7516;43.570;1.448;2022-07-29T05:20:51;99583.28;;;20.59;66.47
28306;BME280;7516;43.570;1.448;2022-07-29T05:23:19;99558.28;;;20.60;67.12
28306;BME280;7516;43.570;1.448;2022-07-29T05:25:46;99539.88;;;20.58;67.24
28306;BME280;7516;43.570;1.448;2022-07-29T05:28:14;99574.75;;;20.57;66.60
28306;BME280;7516;43.570;1.448;2022-07-29T05:30:41;99633.72;;;20.49;66.92
28306;BME280;7516;43.570;1.448;2022-07-29T05:33:11;99675.56;;;20.25;68.06
28306;BME280;7516;43.570;1.448;2022-07-29T05:35:39;99694.22;;;20.13;68.09
28306;BME280;7516;43.570;1.448;2022-07-29T05:38:06;99696.19;;;20.06;68.50
28306;BME280;7516;43.570;1.448;2022-07-29T05:40:34;99685.22;;;19.91;68.66
28306;BME280;7516;43.570;1.448;2022-07-29T05:43:01;99688.34;;;19.88;69.08
28306;BME280;7516;43.570;1.448;2022-07-29T05:45:29;99676.44;;;19.90;69.51
28306;BME280;7516;43.570;1.448;2022-07-29T05:47:56;99676.88;;;19.99;71.14
28306;BME280;7516;43.570;1.448;2022-07-29T05:50:25;99678.06;;;20.03;70.70
28306;BME280;7516;43.570;1.448;2022-07-29T05:52:53;99677.81;;;20.05;70.39
28306;BME280;7516;43.570;1.448;2022-07-29T05:55:20;99653.38;;;20.08;70.82
28306;BME280;7516;43.570;1.448;2022-07-29T05:57:47;99606.06;;;20.10;71.65
28306;BME280;7516;43.570;1.448;2022-07-29T06:00:16;99628.16;;;20.10;70.94
28306;BME280;7516;43.570;1.448;2022-07-29T06:02:43;99641.00;;;20.13;70.75
28306;BME280;7516;43.570;1.448;2022-07-29T06:05:11;99591.25;;;20.14;71.13
28306;BME280;7516;43.570;1.448;2022-07-29T06:07:40;99575.03;;;20.15;71.19
28306;BME280;7516;43.570;1.448;2022-07-29T06:10:08;99601.75;;;20.20;72.54
28306;BME280;7516;43.570;1.448;2022-07-29T06:12:35;99640.13;;;20.24;71.64
28306;BME280;7516;43.570;1.448;2022-07-29T06:15:03;99676.13;;;20.27;71.49
28306;BME280;7516;43.570;1.448;2022-07-29T06:17:32;99688.88;;;20.25;72.04
28306;BME280;7516;43.570;1.448;2022-07-29T06:20:00;99711.91;;;20.19;72.10
28306;BME280;7516;43.570;1.448;2022-07-29T06:22:27;99736.09;;;20.06;72.59
28306;BME280;7516;43.570;1.448;2022-07-29T06:24:56;99720.41;;;19.93;73.19
28306;BME280;7516;43.570;1.448;2022-07-29T06:27:24;99721.06;;;19.88;72.40
28306;BME280;7516;43.570;1.448;2022-07-29T06:29:51;99713.09;;;19.88;73.13
28306;BME280;7516;43.570;1.448;2022-07-29T06:32:19;99708.13;;;19.92;73.58
28306;BME280;7516;43.570;1.448;2022-07-29T06:34:47;99728.03;;;19.89;74.30
28306;BME280;7516;43.570;1.448;2022-07-29T06:37:15;99710.09;;;19.85;74.19
28306;BME280;7516;43.570;1.448;2022-07-29T06:39:43;99694.84;;;19.92;74.28
28306;BME280;7516;43.570;1.448;2022-07-29T06:42:12;99706.16;;;19.99;74.00
28306;BME280;7516;43.570;1.448;2022-07-29T06:44:40;99719.59;;;20.04;74.18
28306;BME280;7516;43.570;1.448;2022-07-29T06:47:07;99744.56;;;20.03;74.56
28306;BME280;7516;43.570;1.448;2022-07-29T06:49:35;99756.25;;;20.02;73.34
28306;BME280;7516;43.570;1.448;2022-07-29T06:52:03;99746.66;;;20.01;74.20
28306;BME280;7516;43.570;1.448;2022-07-29T06:54:30;99770.38;;;20.03;74.89
28306;BME280;7516;43.570;1.448;2022-07-29T06:56:58;99781.69;;;19.98;74.14
28306;BME280;7516;43.570;1.448;2022-07-29T06:59:27;99793.03;;;19.94;74.48
28306;BME280;7516;43.570;1.448;2022-07-29T07:01:55;99784.34;;;19.98;74.86
28306;BME280;7516;43.570;1.448;2022-07-29T07:04:22;99787.00;;;19.98;74.99
28306;BME280;7516;43.570;1.448;2022-07-29T07:06:50;99770.00;;;19.99;74.41
28306;BME280;7516;43.570;1.448;2022-07-29T07:09:17;99785.97;;;19.99;74.97
28306;BME280;7516;43.570;1.448;2022-07-29T07:11:45;99780.44;;;20.01;73.84
28306;BME280;7516;43.570;1.448;2022-07-29T07:14:12;99779.75;;;20.05;74.75
28306;BME280;7516;43.570;1.448;2022-07-29T07:16:41;99752.06;;;20.06;75.04
28306;BME280;7516;43.570;1.448;2022-07-29T07:19:09;99760.88;;;20.07;74.93
28306;BME280;7516;43.570;1.448;2022-07-29T07:21:36;99747.31;;;20.08;74.44
28306;BME280;7516;43.570;1.448;2022-07-29T07:24:04;99748.72;;;20.11;74.50
28306;BME280;7516;43.570;1.448;2022-07-29T07:26:32;99759.13;;;20.12;75.07
28306;BME280;7516;43.570;1.448;2022-07-29T07:28:59;99789.22;;;20.13;74.72
28306;BME280;7516;43.570;1.448;2022-07-29T07:31:27;99792.69;;;20.13;74.35
28306;BME280;7516;43.570;1.448;2022-07-29T07:33:56;99781.25;;;20.13;74.91
28306;BME280;7516;43.570;1.448;2022-07-29T07:36:24;99778.91;;;20.16;74.27
28306;BME280;7516;43.570;1.448;2022-07-29T07:38:51;99776.38;;;20.21;74.17
28306;BME280;7516;43.570;1.448;2022-07-29T07:41:19;99766.88;;;20.25;74.74
28306;BME280;7516;43.570;1.448;2022-07-29T07:43:47;99766.19;;;20.30;74.74
28306;BME280;7516;43.570;1.448;2022-07-29T07:46:15;99764.88;;;20.33;74.63
28306;BME280;7516;43.570;1.448;2022-07-29T07:48:42;99775.91;;;20.36;74.50
28306;BME280;7516;43.570;1.448;2022-07-29T07:51:11;99769.56;;;20.37;74.95
28306;BME280;7516;43.570;1.448;2022-07-29T07:53:39;99765.84;;;20.38;74.96
28306;BME280;7516;43.570;1.448;2022-07-29T07:56:07;99784.81;;;20.42;73.81
28306;BME280;7516;43.570;1.448;2022-07-29T07:58:34;99782.06;;;20.37;74.90
28306;BME280;7516;43.570;1.448;2022-07-29T08:01:02;99792.69;;;20.37;73.86
28306;BME280;7516;43.570;1.448;2022-07-29T08:03:30;99789.00;;;20.38;74.69
28306;BME280;7516;43.570;1.448;2022-07-29T08:05:57;99776.28;;;20.40;74.68
28306;BME280;7516;43.570;1.448;2022-07-29T08:08:26;99784.47;;;20.38;73.53
28306;BME280;7516;43.570;1.448;2022-07-29T08:10:53;99789.81;;;20.38;74.66
28306;BME280;7516;43.570;1.448;2022-07-29T08:13:23;99784.00;;;20.41;74.12
28306;BME280;7516;43.570;1.448;2022-07-29T08:15:53;99797.44;;;20.46;74.05
28306;BME280;7516;43.570;1.448;2022-07-29T08:18:25;99805.50;;;20.51;73.71
28306;BME280;7516;43.570;1.448;2022-07-29T08:20:53;99808.53;;;20.55;73.66
28306;BME280;7516;43.570;1.448;2022-07-29T08:23:20;99805.97;;;20.60;74.35
28306;BME280;7516;43.570;1.448;2022-07-29T08:25:50;99823.91;;;20.64;73.23
28306;BME280;7516;43.570;1.448;2022-07-29T08:28:18;99842.88;;;20.68;73.49
28306;BME280;7516;43.570;1.448;2022-07-29T08:30:45;99845.91;;;20.72;73.29
28306;BME280;7516;43.570;1.448;2022-07-29T08:33:13;99848.66;;;20.77;72.60
28306;BME280;7516;43.570;1.448;2022-07-29T08:35:40;99853.53;;;20.80;76.61
28306;BME280;7516;43.570;1.448;2022-07-29T08:38:08;99848.66;;;20.77;79.61
28306;BME280;7516;43.570;1.448;2022-07-29T08:40:36;99856.09;;;20.63;80.28
28306;BME280;7516;43.570;1.448;2022-07-29T08:43:08;99852.41;;;20.64;80.33
28306;BME280;7516;43.570;1.448;2022-07-29T08:45:42;99855.97;;;20.70;80.25
28306;BME280;7516;43.570;1.448;2022-07-29T08:48:12;99866.19;;;20.61;81.75
28306;BME280;7516;43.570;1.448;2022-07-29T08:50:40;99854.03;;;20.65;81.39
28306;BME280;7516;43.570;1.448;2022-07-29T08:53:11;99855.66;;;20.66;81.40
28306;BME280;7516;43.570;1.448;2022-07-29T08:55:40;99847.75;;;20.71;81.73
28306;BME280;7516;43.570;1.448;2022-07-29T08:58:10;99854.72;;;20.72;82.62
28306;BME280;7516;43.570;1.448;2022-07-29T09:00:42;99853.75;;;20.78;82.89
28306;BME280;7516;43.570;1.448;2022-07-29T09:03:12;99852.03;;;20.84;81.59
28306;BME280;7516;43.570;1.448;2022-07-29T09:05:42;99856.19;;;20.80;82.01
28306;BME280;7516;43.570;1.448;2022-07-29T09:08:10;99851.00;;;20.73;82.42
28306;BME280;7516;43.570;1.448;2022-07-29T09:10:39;99842.78;;;20.75;82.15
28306;BME280;7516;43.570;1.448;2022-07-29T09:13:06;99839.06;;;20.76;82.33
28306;BME280;7516;43.570;1.448;2022-07-29T09:15:35;99833.16;;;20.74;82.37
28306;BME280;7516;43.570;1.448;2022-07-29T09:18:03;99826.09;;;20.67;82.57
28306;BME280;7516;43.570;1.448;2022-07-29T09:20:30;99825.13;;;20.85;82.21
28306;BME280;7516;43.570;1.448;2022-07-29T09:23:12;99819.09;;;20.90;82.36
28306;BME280;7516;43.570;1.448;2022-07-29T09:25:41;99812.13;;;21.00;81.27
28306;BME280;7516;43.570;1.448;2022-07-29T09:28:10;99800.56;;;21.12;80.38
28306;BME280;7516;43.570;1.448;2022-07-29T09:30:50;99801.59;;;21.22;80.18
28306;BME280;7516;43.570;1.448;2022-07-29T09:33:18;99791.28;;;21.26;79.29
28306;BME280;7516;43.570;1.448;2022-07-29T09:35:46;99772.88;;;21.24;79.35
28306;BME280;7516;43.570;1.448;2022-07-29T09:38:13;99764.88;;;21.13;79.48
28306;BME280;7516;43.570;1.448;2022-07-29T09:40:41;99752.50;;;21.18;79.47
28306;BME280;7516;43.570;1.448;2022-07-29T09:43:12;99751.72;;;21.06;80.04
28306;BME280;7516;43.570;1.448;2022-07-29T09:45:41;99753.94;;;20.97;80.93
28306;BME280;7516;43.570;1.448;2022-07-29T09:48:17;99770.75;;;20.98;80.97
28306;BME280;7516;43.570;1.448;2022-07-29T09:50:45;99783.47;;;21.08;80.55
28306;BME280;7516;43.570;1.448;2022-07-29T09:53:30;99779.53;;;21.10;80.07
28306;BME280;7516;43.570;1.448;2022-07-29T09:55:59;99794.88;;;21.20;79.49
28306;BME280;7516;43.570;1.448;2022-07-29T09:58:26;99807.94;;;21.33;79.43
28306;BME280;7516;43.570;1.448;2022-07-29T10:00:56;99813.50;;;21.31;78.78
28306;BME280;7516;43.570;1.448;2022-07-29T10:03:24;99814.91;;;21.51;79.23
28306;BME280;7516;43.570;1.448;2022-07-29T10:06:06;99819.38;;;21.62;78.55
28306;BME280;7516;43.570;1.448;2022-07-29T10:08:33;99827.94;;;21.64;78.74
28306;BME280;7516;43.570;1.448;2022-07-29T10:11:10;99826.25;;;21.74;77.89
28306;BME280;7516;43.570;1.448;2022-07-29T10:13:38;99824.78;;;21.84;77.22
28306;BME280;7516;43.570;1.448;2022-07-29T10:16:08;99821.34;;;22.00;76.14
28306;BME280;7516;43.570;1.448;2022-07-29T10:18:36;99814.22;;;22.22;74.92
28306;BME280;7516;43.570;1.448;2022-07-29T10:21:05;99807.59;;;22.46;74.45
28306;BME280;7516;43.570;1.448;2022-07-29T10:23:34;99802.81;;;22.48;73.25
28306;BME280;7516;43.570;1.448;2022-07-29T10:26:02;99804.28;;;22.61;73.91
28306;BME280;7516;43.570;1.448;2022-07-29T10:28:30;99809.47;;;22.68;71.71
28306;BME280;7516;43.570;1.448;2022-07-29T10:31:01;99802.03;;;22.92;71.37
28306;BME280;7516;43.570;1.448;2022-07-29T10:33:42;99786.94;;;23.07;70.89
28306;BME280;7516;43.570;1.448;2022-07-29T10:36:27;99794.00;;;23.45;70.71
28306;BME280;7516;43.570;1.448;2022-07-29T10:39:05;99789.22;;;23.74;68.84
28306;BME280;7516;43.570;1.448;2022-07-29T10:41:52;99789.72;;;23.76;66.02
28306;BME280;7516;43.570;1.448;2022-07-29T10:44:24;99792.00;;;23.57;65.15
28306;BME280;7516;43.570;1.448;2022-07-29T10:46:53;99795.19;;;23.54;65.67
28306;BME280;7516;43.570;1.448;2022-07-29T10:49:23;99779.63;;;23.83;66.13
28306;BME280;7516;43.570;1.448;2022-07-29T10:51:57;99782.25;;;24.15;64.77
28306;BME280;7516;43.570;1.448;2022-07-29T10:54:44;99777.75;;;24.21;63.69
28306;BME280;7516;43.570;1.448;2022-07-29T10:57:21;99778.44;;;24.11;64.75
28306;BME280;7516;43.570;1.448;2022-07-29T11:02:46;99769.81;;;24.41;62.36
28306;BME280;7516;43.570;1.448;2022-07-29T11:05:21;99768.25;;;24.50;60.64
28306;BME280;7516;43.570;1.448;2022-07-29T11:08:22;99764.75;;;24.50;60.23
28306;BME280;7516;43.570;1.448;2022-07-29T11:13:47;99756.78;;;24.70;60.72
28306;BME280;7516;43.570;1.448;2022-07-29T11:16:18;99757.59;;;24.70;59.76
28306;BME280;7516;43.570;1.448;2022-07-29T11:19:21;99749.56;;;24.75;58.92
28306;BME280;7516;43.570;1.448;2022-07-29T11:21:50;99759.94;;;24.57;57.51
28306;BME280;7516;43.570;1.448;2022-07-29T11:24:20;99754.84;;;24.50;58.58
28306;BME280;7516;43.570;1.448;2022-07-29T11:27:08;99757.78;;;24.49;59.14
28306;BME280;7516;43.570;1.448;2022-07-29T11:29:39;99760.72;;;24.42;58.97
28306;BME280;7516;43.570;1.448;2022-07-29T11:32:12;99760.41;;;24.38;58.85
28306;BME280;7516;43.570;1.448;2022-07-29T11:34:41;99762.59;;;24.47;58.51
28306;BME280;7516;43.570;1.448;2022-07-29T11:37:21;99765.28;;;24.47;58.12
28306;BME280;7516;43.570;1.448;2022-07-29T11:40:16;99754.88;;;24.60;57.63
28306;BME280;7516;43.570;1.448;2022-07-29T11:42:51;99751.41;;;24.60;58.75
28306;BME280;7516;43.570;1.448;2022-07-29T11:45:31;99749.31;;;24.82;59.15
28306;BME280;7516;43.570;1.448;2022-07-29T11:48:19;99753.34;;;24.85;58.92
28306;BME280;7516;43.570;1.448;2022-07-29T11:50:46;99750.06;;;24.72;59.85
28306;BME280;7516;43.570;1.448;2022-07-29T11:53:15;99757.88;;;24.74;59.33
28306;BME280;7516;43.570;1.448;2022-07-29T11:55:43;99747.94;;;24.74;59.53
28306;BME280;7516;43.570;1.448;2022-07-29T11:58:11;99751.47;;;24.85;59.75
28306;BME280;7516;43.570;1.448;2022-07-29T12:00:40;99749.31;;;24.82;59.86
28306;BME280;7516;43.570;1.448;2022-07-29T12:03:09;99738.91;;;25.01;59.54
28306;BME280;7516;43.570;1.448;2022-07-29T12:05:40;99749.09;;;24.99;57.58
28306;BME280;7516;43.570;1.448;2022-07-29T12:08:10;99750.19;;;24.98;55.86
28306;BME280;7516;43.570;1.448;2022-07-29T12:10:40;99749.66;;;25.01;53.82
28306;BME280;7516;43.570;1.448;2022-07-29T12:13:08;99751.25;;;24.92;53.43
28306;BME280;7516;43.570;1.448;2022-07-29T12:15:36;99749.91;;;24.99;53.52
28306;BME280;7516;43.570;1.448;2022-07-29T12:18:14;99752.34;;;25.11;52.76
28306;BME280;7516;43.570;1.448;2022-07-29T12:20:42;99754.78;;;25.23;52.21
28306;BME280;7516;43.570;1.448;2022-07-29T12:23:10;99753.69;;;25.34;52.06
28306;BME280;7516;43.570;1.448;2022-07-29T12:25:42;99752.66;;;25.30;51.29
28306;BME280;7516;43.570;1.448;2022-07-29T12:28:11;99744.84;;;25.43;51.18
28306;BME280;7516;43.570;1.448;2022-07-29T12:30:42;99756.69;;;25.47;52.01
28306;BME280;7516;43.570;1.448;2022-07-29T12:33:20;99763.09;;;25.52;52.05
28306;BME280;7516;43.570;1.448;2022-07-29T12:35:49;99761.50;;;25.61;52.73
28306;BME280;7516;43.570;1.448;2022-07-29T12:38:18;99759.09;;;25.84;52.75
28306;BME280;7516;43.570;1.448;2022-07-29T12:40:48;99763.66;;;25.79;52.00
28306;BME280;7516;43.570;1.448;2022-07-29T12:43:18;99764.72;;;25.88;52.33
28306;BME280;7516;43.570;1.448;2022-07-29T12:45:48;99766.03;;;26.11;51.07
28306;BME280;7516;43.570;1.448;2022-07-29T12:48:17;99784.28;;;26.29;51.21
28306;BME280;7516;43.570;1.448;2022-07-29T12:50:56;99776.50;;;26.28;50.93
28306;BME280;7516;43.570;1.448;2022-07-29T12:53:24;99767.06;;;26.15;51.26
28306;BME280;7516;43.570;1.448;2022-07-29T12:55:56;99773.25;;;26.31;51.86
28306;BME280;7516;43.570;1.448;2022-07-29T12:58:32;99769.47;;;26.32;51.65
28306;BME280;7516;43.570;1.448;2022-07-29T13:01:08;99760.34;;;26.33;51.68
28306;BME280;7516;43.570;1.448;2022-07-29T13:03:50;99757.09;;;26.36;52.00
28306;BME280;7516;43.570;1.448;2022-07-29T13:06:29;99761.94;;;26.34;51.87
28306;BME280;7516;43.570;1.448;2022-07-29T13:09:05;99765.44;;;26.24;52.70
28306;BME280;7516;43.570;1.448;2022-07-29T13:11:35;99758.22;;;26.09;52.80
28306;BME280;7516;43.570;1.448;2022-07-29T13:14:05;99757.66;;;26.12;53.23
28306;BME280;7516;43.570;1.448;2022-07-29T13:16:33;99754.72;;;26.14;52.96
28306;BME280;7516;43.570;1.448;2022-07-29T13:19:08;99752.28;;;26.17;53.20
28306;BME280;7516;43.570;1.448;2022-07-29T13:21:37;99747.47;;;26.19;53.02
28306;BME280;7516;43.570;1.448;2022-07-29T13:24:06;99750.66;;;26.21;52.29
28306;BME280;7516;43.570;1.448;2022-07-29T13:26:39;99745.81;;;26.23;52.01
28306;BME280;7516;43.570;1.448;2022-07-29T13:29:06;99750.63;;;26.42;52.42
28306;BME280;7516;43.570;1.448;2022-07-29T13:31:34;99760.53;;;26.51;51.04